MST,Max TemperatureF,Mean TemperatureF,Min TemperatureF,Max Dew PointF,MeanDew PointF,Min DewpointF,Max Humidity, Mean Humidity, Min Humidity, Max Sea Level PressureIn, Mean Sea Level PressureIn, Min Sea Level PressureIn, Max VisibilityMiles, Mean VisibilityMiles, Min VisibilityMiles, Max Wind SpeedMPH, Mean Wind SpeedMPH, Max Gust SpeedMPH,PrecipitationIn, CloudCover, Events, WindDirDegrees
2013-1-1,33,25,16,24,17,7,78,69,60,30.43,30.29,30.05,10,10,10,28,14,35,T,3,,233
2013-1-2,27,19,11,12,8,3,67,57,46,30.54,30.44,30.25,10,10,10,25,15,30,0.00,0,,209
2013-1-3,37,31,24,18,14,10,55,50,44,30.32,30.22,30.12,10,10,10,32,20,37,0.00,0,,208
2013-1-4,40,32,23,24,19,13,75,58,40,30.26,30.16,30.05,10,10,10,36,20,43,0.00,0,,225
2013-1-5,41,31,20,24,19,15,81,64,47,30.34,30.24,30.07,10,10,10,24,13,29,0.00,0,,206
2013-1-6,43,38,33,26,21,17,56,50,44,30.03,29.94,29.87,10,10,10,32,22,40,0.00,0,,220
2013-1-7,42,38,34,26,22,19,56,48,39,29.95,29.79,29.62,10,10,10,31,20,40,0.00,4,,223
2013-1-8,42,37,32,26,21,14,69,50,30,30.03,29.90,29.69,10,10,10,28,15,35,0.00,3,,237
2013-1-9,53,46,39,27,25,22,59,45,30,29.90,29.75,29.58,10,10,10,31,18,38,0.00,1,,204
2013-1-10,42,26,10,28,15,5,88,69,49,30.05,29.78,29.58,10,2,0,25,16,29,0.38,7,Fog-Snow,336
2013-1-11,10,5,0,5,1,-5,87,80,73,30.39,30.08,29.85,10,3,1,22,12,25,0.09,8,Snow,336
2013-1-12,17,7,-3,10,3,-8,87,75,63,30.38,30.25,30.09,10,7,1,18,11,21,0.01,5,Snow,232
2013-1-13,17,9,1,8,4,-3,87,73,59,30.41,30.30,30.08,10,8,2,17,12,20,0.01,8,Snow,221
2013-1-14,27,19,11,17,8,0,67,62,56,30.31,30.18,29.93,10,10,6,30,21,36,T,6,Snow,215
2013-1-15,36,32,27,23,20,17,69,64,59,30.24,30.17,29.98,10,10,10,32,25,39,0.00,4,,220
2013-1-16,46,40,33,28,22,18,59,48,37,30.35,30.24,30.15,10,10,10,35,19,45,0.00,0,,233
2013-1-17,45,39,32,25,21,18,64,52,40,30.36,30.22,30.03,10,10,10,36,21,43,0.00,0,,221
2013-1-18,47,42,36,21,19,18,48,40,31,30.06,29.98,29.91,10,10,10,35,21,45,0.00,0,,227
2013-1-19,39,33,26,25,21,17,85,65,44,30.39,30.24,30.09,10,10,10,25,10,33,0.00,1,,54
2013-1-20,26,20,13,18,13,9,81,75,68,30.62,30.50,30.22,10,9,4,26,8,33,T,8,Snow,37
2013-1-21,46,30,13,21,13,8,84,60,36,30.43,30.23,30.09,10,10,10,15,6,18,0.00,2,,130
2013-1-22,50,37,23,17,13,10,68,46,23,30.16,30.10,30.05,10,10,10,20,12,23,0.00,0,,216
2013-1-23,42,30,18,25,15,13,80,70,59,30.24,30.12,29.80,10,10,7,15,5,18,0.00,0,,64
2013-1-24,49,40,31,29,23,17,57,46,34,30.13,30.00,29.86,10,10,10,33,19,40,0.00,1,,241
2013-1-25,50,46,41,30,27,24,58,50,42,30.05,29.97,29.86,10,10,10,25,18,31,0.00,1,,212
2013-1-26,56,44,32,32,30,25,92,61,30,29.85,29.79,29.69,10,9,1,23,11,29,T,5,Rain-Snow,216
2013-1-27,41,31,20,30,19,12,89,60,30,29.91,29.87,29.81,10,10,10,20,10,23,0.00,3,,231
2013-1-28,40,30,20,18,14,11,74,52,30,29.91,29.84,29.75,10,10,10,25,13,30,0.00,2,,224
2013-1-29,29,11,-7,17,0,-10,80,69,57,30.42,30.15,29.77,10,5,0,25,10,31,0.11,7,Snow,329
2013-1-30,38,25,11,26,15,7,81,71,61,30.25,30.07,29.95,10,8,2,18,10,26,0.01,8,Snow,23
2013-1-31,39,25,11,29,17,6,84,74,64,30.31,30.19,30.06,10,10,9,15,7,18,0.00,6,,198